Ana Sayfa
METAR-TAF:

METAR-TAF

Havaalanları :

Glendale Municipal Airport

Glendale, Arizona, Amerika Birleşik Devletleri

Enlem: 33-31-38N, Boylam: 112-17-43W, yükseklik: 325 m

Güncel hava durumu gözlemi

Rapor saat 02:54 UTC de 4 saat ve 49 dakika önce yapıldı.
Sakin rüzgar
Sıcaklık 14°C
Nem 72%
Basınç 1017 hPa
Görüş mesafesi: 16.1 km
25000 ft yükseklikte az bulutlu

METAR: KGEU 140254Z 00000KT 10SM FEW250 14/09 A3002 RMK LAST

Saat: 00:43 (07:43 UTC)


TAF: eksik

4.000'den fazla havaalanı için hava durumu gözlemleri ve tahminleri (METAR ve TAF raporları).

Kullanılabilir istasyonlar harita üzerinde sarı ve kırmızı noktalarla gösterilir.

İstasyonun adını görmek için fareyi noktanın üzerinde gezdirin.

Sonrasında hava gözlem ve tahminlerini görmek için tıklayın.

Haritayı değiştirmek için: yaklaştırmak için siyah artı işaretli yeşil düğmeye ve uzaklaştırmak için de eksi işaretli düğmeye hızla tıklayın; bitişik haritalar için yeşil okları kullanın.


METAR-TAF: